Time;durP1;ratioP1;P1;durP2;ratioP2;P2;SDS_P1;SDS_P2;PMS_P1;PMS_P2;Temp;Humidity;BMP_temperature;BMP_pressure;BME280_temperature;BME280_humidity;BME280_pressure;Samples;Min_cycle;Max_cycle;Signal;HPM_P1;HPM_P2
2020/12/12 00:46:47;;;;;;;33.38;12.25;;;6.60;99.90;;;;;;5639345;23;20288;-95
2020/12/12 00:49:19;;;;;;;29.50;12.20;;;6.60;99.90;;;;;;4901703;29;20080;-96
2020/12/12 01:25:51;;;;;;;35.90;11.65;;;6.70;99.90;;;;;;5089888;23;20059;-96
2020/12/12 02:42:31;;;;;;;23.50;10.75;;;6.70;99.90;;;;;;5395665;23;20061;-95
2020/12/12 03:17:16;;;;;;;20.40;9.73;;;6.70;99.90;;;;;;4944865;23;20051;-96
2020/12/12 03:28:26;;;;;;;39.15;16.33;;;6.70;99.90;;;;;;5881006;23;20224;-95
2020/12/12 03:30:52;;;;;;;38.47;15.43;;;6.70;99.90;;;;;;4942031;29;20020;-95
2020/12/12 03:33:22;;;;;;;35.22;13.00;;;6.70;99.90;;;;;;4943159;29;20052;-95
2020/12/12 03:35:48;;;;;;;32.45;12.35;;;6.70;99.90;;;;;;4937763;29;20036;-94
2020/12/12 03:49:54;;;;;;;42.30;15.07;;;6.70;99.90;;;;;;5492297;23;20048;-94
2020/12/12 03:52:52;;;;;;;34.85;14.57;;;6.80;99.90;;;;;;4916707;29;20035;-95
2020/12/12 06:42:51;;;;;;;45.63;15.70;;;6.80;99.90;;;;;;1097963;23;21659;31
2020/12/12 06:45:23;;;;;;;35.15;12.82;;;6.80;99.90;;;;;;4916829;29;20048;-95
2020/12/12 06:47:51;;;;;;;37.38;13.07;;;6.80;99.90;;;;;;4901835;29;20107;-95
2020/12/12 06:50:24;;;;;;;23.92;9.00;;;6.80;99.90;;;;;;4901339;29;20029;-95
2020/12/12 06:52:51;;;;;;;17.80;7.25;;;6.80;99.90;;;;;;4898880;29;20103;-92
2020/12/12 06:55:20;;;;;;;20.23;6.30;;;6.80;99.90;;;;;;4905066;29;20020;-94
2020/12/12 06:57:48;;;;;;;18.73;7.20;;;6.90;99.90;;;;;;4898137;29;20027;-96
2020/12/12 07:00:40;;;;;;;17.85;6.38;;;6.90;99.90;;;;;;4902034;29;20091;-94
2020/12/12 07:03:08;;;;;;;17.00;6.35;;;7.00;99.90;;;;;;4920410;29;20021;-94
2020/12/12 07:05:40;;;;;;;16.17;6.45;;;7.00;99.90;;;;;;4905177;29;20056;-96
2020/12/12 07:08:17;;;;;;;24.67;6.85;;;7.10;99.90;;;;;;4912475;29;20054;-95
2020/12/12 07:10:59;;;;;;;15.35;6.20;;;7.10;99.90;;;;;;4914410;29;20033;-96
2020/12/12 07:13:53;;;;;;;17.40;5.60;;;7.10;99.90;;;;;;4896160;29;20037;-94
2020/12/12 07:16:30;;;;;;;12.07;5.90;;;7.20;99.90;;;;;;4880408;29;20033;-94
2020/12/12 07:18:59;;;;;;;17.33;6.28;;;7.20;99.90;;;;;;4879570;29;20140;-95
2020/12/12 07:21:25;;;;;;;13.00;5.70;;;7.20;99.90;;;;;;4879584;29;20550;-95
2020/12/12 07:23:54;;;;;;;16.75;5.80;;;7.20;99.90;;;;;;4894811;29;20041;-93
2020/12/12 07:26:40;;;;;;;16.30;5.97;;;7.20;99.90;;;;;;4885696;29;20017;-95
2020/12/12 07:29:07;;;;;;;14.73;5.78;;;7.20;99.90;;;;;;4899291;29;20041;-95
2020/12/12 07:31:47;;;;;;;15.02;6.13;;;7.30;99.90;;;;;;4906941;29;20054;-94
2020/12/12 07:34:26;;;;;;;17.95;5.72;;;7.20;99.90;;;;;;4867943;29;20024;-94
2020/12/12 07:37:26;;;;;;;11.95;5.63;;;7.20;99.90;;;;;;4881960;29;20032;-95
2020/12/12 07:43:02;;;;;;;12.20;5.30;;;7.30;99.90;;;;;;4854385;29;20063;-94
2020/12/12 07:48:08;;;;;;;20.60;5.97;;;7.30;99.90;;;;;;4861618;29;20038;-96
2020/12/12 07:56:56;;;;;;;14.73;5.80;;;7.30;99.90;;;;;;1785954;23;20239;-93
2020/12/12 07:59:22;;;;;;;12.27;5.43;;;7.30;99.90;;;;;;4914842;29;20036;-92
2020/12/12 08:01:49;;;;;;;11.63;3.88;;;7.30;99.90;;;;;;4898681;29;20456;-95
2020/12/12 08:04:22;;;;;;;13.80;4.82;;;7.30;99.90;;;;;;4908241;29;20016;-94
2020/12/12 08:06:48;;;;;;;10.38;4.28;;;7.30;99.90;;;;;;4909936;29;20036;-94
2020/12/12 08:09:22;;;;;;;12.30;4.72;;;7.30;99.90;;;;;;4918396;29;20033;-92
2020/12/12 08:12:30;;;;;;;;;;;;;;;;;;;;;
2020/12/12 08:14:51;;;;;;;8.13;3.72;;;7.30;99.90;;;;;;4910513;29;20131;-95
2020/12/12 08:17:16;;;;;;;6.22;3.85;;;7.30;99.90;;;;;;4905367;29;20321;-94
2020/12/12 08:19:49;;;;;;;10.52;3.78;;;7.30;99.90;;;;;;4904623;29;20055;-95
2020/12/12 08:22:20;;;;;;;9.75;4.15;;;7.40;99.90;;;;;;4906700;29;20023;-94
2020/12/12 08:24:46;;;;;;;9.13;3.22;;;7.30;99.90;;;;;;4911527;29;20032;-95
2020/12/12 08:27:14;;;;;;;7.85;3.80;;;7.40;99.90;;;;;;4906650;29;20101;-94
2020/12/12 08:29:50;;;;;;;6.28;2.97;;;7.40;99.90;;;;;;4927392;29;20024;-94
2020/12/12 08:40:12;;;;;;;6.88;2.83;;;7.40;99.90;;;;;;5596153;23;19927;-95
2020/12/12 08:43:41;;;;;;;2.88;1.98;;;7.40;99.90;;;;;;4959055;29;20019;-95
2020/12/12 08:46:26;;;;;;;;;;;;;;;;;;;;;
2020/12/12 08:49:19;;;;;;;3.30;1.23;;;7.50;99.90;;;;;;4953691;29;20028;-96
2020/12/12 09:26:31;;;;;;;0.60;0.60;;;7.40;99.90;;;;;;4964904;28;20042;-96
2020/12/12 09:28:57;;;;;;;0.40;0.40;;;7.50;99.90;;;;;;4947297;29;20038;-94
2020/12/12 09:31:27;;;;;;;1.40;0.70;;;7.50;99.90;;;;;;4966681;29;20099;-95
2020/12/12 09:34:04;;;;;;;2.13;0.50;;;7.40;99.90;;;;;;4952853;28;20020;-95
2020/12/12 09:36:31;;;;;;;0.43;0.40;;;7.40;99.90;;;;;;4952173;28;20047;-95
2020/12/12 09:41:32;;;;;;;0.50;0.50;;;7.40;99.90;;;;;;4925559;29;20092;-95
2020/12/12 09:46:35;;;;;;;0.65;0.40;;;7.40;99.90;;;;;;4929366;23;20052;-95
2020/12/12 09:49:00;;;;;;;0.35;0.22;;;7.40;99.90;;;;;;4896765;29;20032;-94
2020/12/12 09:51:26;;;;;;;0.40;0.40;;;7.40;99.90;;;;;;4914849;29;20079;-94
2020/12/12 09:53:56;;;;;;;0.45;0.30;;;7.40;99.90;;;;;;4916600;29;20028;-96
2020/12/12 09:56:22;;;;;;;1.70;0.50;;;7.40;99.90;;;;;;4915310;29;20043;-95
2020/12/12 09:58:48;;;;;;;0.40;0.32;;;7.50;99.90;;;;;;4919066;29;20036;-96
2020/12/12 10:01:15;;;;;;;0.30;0.30;;;7.40;99.90;;;;;;4920745;29;20243;-94
2020/12/12 10:03:41;;;;;;;0.85;0.30;;;7.50;99.90;;;;;;4918046;29;20055;-95
2020/12/12 10:06:09;;;;;;;1.05;0.30;;;7.40;99.90;;;;;;4934364;29;20051;-96
2020/12/12 10:08:39;;;;;;;0.73;0.32;;;7.40;99.90;;;;;;4903665;29;20095;-96
2020/12/12 10:11:20;;;;;;;0.82;0.43;;;7.40;99.90;;;;;;4918737;29;20044;-96
2020/12/12 10:13:50;;;;;;;0.65;0.32;;;7.40;99.90;;;;;;4925443;29;20032;-96
2020/12/12 10:16:23;;;;;;;0.30;0.30;;;7.40;99.90;;;;;;4890076;29;20020;-93
2020/12/12 10:18:59;;;;;;;0.40;0.30;;;7.50;99.90;;;;;;4922474;29;20020;-96
2020/12/12 10:41:00;;;;;;;1.95;0.20;;;7.60;99.90;;;;;;5163122;23;20039;-94
2020/12/12 10:43:34;;;;;;;0.20;0.20;;;7.70;99.90;;;;;;4933342;29;20028;-94
2020/12/12 10:46:02;;;;;;;1.77;0.60;;;7.70;99.90;;;;;;4926076;29;20056;-94
2020/12/12 10:48:30;;;;;;;1.10;0.30;;;7.70;99.90;;;;;;5094078;23;20064;-96
2020/12/12 10:50:56;;;;;;;0.73;0.38;;;7.80;99.90;;;;;;4948921;29;20032;-96
2020/12/12 10:53:28;;;;;;;2.08;0.80;;;7.80;99.90;;;;;;4927815;29;20120;-96
2020/12/12 10:55:55;;;;;;;0.73;0.57;;;7.80;99.90;;;;;;4940145;29;20079;-96
2020/12/12 10:58:21;;;;;;;0.30;0.20;;;7.80;99.90;;;;;;4936883;29;20032;-96
2020/12/12 11:00:57;;;;;;;2.00;0.60;;;7.90;99.90;;;;;;4925306;29;20055;-95
2020/12/12 11:08:50;;;;;;;1.15;0.47;;;8.00;99.90;;;;;;4933584;29;20135;-96
2020/12/12 11:11:21;;;;;;;1.48;0.60;;;8.00;99.90;;;;;;4950088;23;20055;-95
2020/12/12 13:12:44;;;;;;;3.90;0.85;;;7.80;99.90;;;;;;4941253;28;20041;-96
2020/12/12 13:15:12;;;;;;;4.10;0.70;;;7.80;99.90;;;;;;4947879;29;20036;-96
2020/12/12 13:17:40;;;;;;;2.78;0.90;;;7.80;99.90;;;;;;5046237;23;20044;-96
2020/12/12 13:20:29;;;;;;;5.38;0.90;;;7.80;99.90;;;;;;4959928;28;20140;-95
2020/12/12 13:22:55;;;;;;;2.10;0.52;;;7.80;99.90;;;;;;5264736;23;20036;-96
2020/12/12 13:31:08;;;;;;;7.18;1.58;;;7.80;99.90;;;;;;4930439;29;20088;-94
2020/12/12 13:33:35;;;;;;;4.90;0.75;;;7.80;99.90;;;;;;4925366;29;20050;-95
2020/12/12 13:36:08;;;;;;;3.45;0.75;;;7.90;99.90;;;;;;4925319;29;20032;-95
2020/12/12 13:38:36;;;;;;;5.75;0.90;;;7.90;99.90;;;;;;4919939;29;20022;-94
2020/12/12 13:41:04;;;;;;;4.28;0.90;;;7.90;99.90;;;;;;4926837;29;20032;-95
2020/12/12 13:43:30;;;;;;;1.17;0.73;;;8.00;99.90;;;;;;4975502;23;20041;-93
2020/12/12 14:23:02;;;;;;;4.68;1.30;;;8.00;99.90;;;;;;4925021;29;20043;-96
2020/12/12 14:26:01;;;;;;;9.88;2.53;;;8.10;99.90;;;;;;4913068;29;20036;-96
2020/12/12 14:28:27;;;;;;;5.47;1.10;;;8.10;99.90;;;;;;4929980;29;20027;-96
2020/12/12 14:45:06;;;;;;;7.85;1.60;;;8.10;99.90;;;;;;783605;23;21600;-92
2020/12/12 14:47:34;;;;;;;11.07;1.52;;;8.00;99.90;;;;;;4918135;29;20076;-95
2020/12/12 14:50:00;;;;;;;11.45;1.90;;;8.00;99.90;;;;;;4906809;29;20028;-95
2020/12/12 14:57:33;;;;;;;13.05;3.28;;;7.80;99.90;;;;;;4939771;29;20051;-96
2020/12/12 14:59:59;;;;;;;8.35;2.20;;;7.80;99.90;;;;;;4921788;29;20047;-95
2020/12/12 15:10:48;;;;;;;16.88;1.95;;;7.60;99.90;;;;;;4934760;29;20040;-96
2020/12/12 15:13:17;;;;;;;9.05;1.20;;;7.60;99.90;;;;;;4908016;29;20028;-96
2020/12/12 15:15:43;;;;;;;9.40;1.63;;;7.60;99.90;;;;;;4919960;29;20039;-96
2020/12/12 15:18:12;;;;;;;7.78;1.38;;;7.60;99.90;;;;;;4921728;29;20040;-95
2020/12/12 15:20:42;;;;;;;7.68;1.17;;;7.60;99.90;;;;;;4919079;29;20044;-96
2020/12/12 15:23:11;;;;;;;11.27;1.88;;;7.50;99.90;;;;;;4922000;29;20398;-96
2020/12/12 15:25:37;;;;;;;8.73;2.63;;;7.50;99.90;;;;;;4906592;29;20025;-96
2020/12/12 15:28:04;;;;;;;14.98;1.55;;;7.50;99.90;;;;;;4923465;29;20136;-96
2020/12/12 15:30:35;;;;;;;10.88;1.92;;;7.50;99.90;;;;;;4923551;29;20036;-96
2020/12/12 15:33:04;;;;;;;9.27;1.33;;;7.50;99.90;;;;;;5197097;23;20049;-96
2020/12/12 15:35:30;;;;;;;9.23;1.60;;;7.50;99.90;;;;;;4915442;29;20284;-95
2020/12/12 15:38:01;;;;;;;10.23;1.60;;;7.50;99.90;;;;;;4921783;29;20029;-94
2020/12/12 15:40:31;;;;;;;;;;;7.50;99.90;;;;;;4918486;29;20033;-95
2020/12/12 15:43:00;;;;;;;11.25;2.38;;;7.50;99.90;;;;;;4927189;29;19899;-96
2020/12/12 15:45:26;;;;;;;5.60;1.45;;;7.40;99.90;;;;;;4916165;29;20043;-95
2020/12/12 15:47:52;;;;;;;11.70;2.08;;;7.50;99.90;;;;;;4899719;29;20045;-95
2020/12/12 15:50:27;;;;;;;9.88;1.40;;;7.40;99.90;;;;;;4902399;29;20092;-96
2020/12/12 15:52:53;;;;;;;10.23;1.88;;;7.40;99.90;;;;;;4901687;29;20040;-94
2020/12/12 15:55:19;;;;;;;13.90;1.73;;;7.40;99.90;;;;;;4900240;29;20048;-95
2020/12/12 15:57:45;;;;;;;9.75;1.33;;;7.40;99.90;;;;;;4920446;29;20076;-95
2020/12/12 16:00:14;;;;;;;5.32;1.13;;;7.30;99.90;;;;;;4917589;29;20029;-96
2020/12/12 16:02:40;;;;;;;8.23;1.83;;;7.30;99.90;;;;;;4917016;29;20036;-95
2020/12/12 16:06:01;;;;;;;10.95;1.63;;;7.30;99.90;;;;;;4917550;29;20036;-96
2020/12/12 16:08:29;;;;;;;8.20;1.80;;;7.20;99.90;;;;;;4895036;29;20581;-96
2020/12/12 16:10:55;;;;;;;8.70;2.33;;;7.20;99.90;;;;;;4913706;29;20025;-95
2020/12/12 16:13:24;;;;;;;5.97;1.98;;;7.20;99.90;;;;;;4896917;29;20032;-96
2020/12/12 16:15:53;;;;;;;6.22;1.80;;;7.20;99.90;;;;;;4895990;29;20037;-96
2020/12/12 16:18:20;;;;;;;8.38;1.90;;;7.20;99.90;;;;;;4895458;29;20032;-96
2020/12/12 16:20:46;;;;;;;12.00;2.10;;;7.10;99.90;;;;;;4899231;29;20008;-95
2020/12/12 16:23:14;;;;;;;8.40;1.60;;;7.10;99.90;;;;;;4902415;29;20092;-96
2020/12/12 16:25:42;;;;;;;11.38;1.35;;;7.20;99.90;;;;;;4916832;29;20037;-95
2020/12/12 16:28:08;;;;;;;8.52;1.95;;;7.10;99.90;;;;;;4917977;29;20100;-94
2020/12/12 16:30:37;;;;;;;12.60;2.17;;;7.10;99.90;;;;;;4886501;29;20032;-95
2020/12/12 16:33:03;;;;;;;15.20;3.53;;;7.10;99.90;;;;;;4910675;29;20132;-95
2020/12/12 16:35:30;;;;;;;10.25;2.58;;;7.10;99.90;;;;;;4919587;29;20032;-95
2020/12/12 16:37:56;;;;;;;6.45;1.77;;;7.00;99.90;;;;;;4902711;29;20028;-96
2020/12/12 16:40:24;;;;;;;12.45;2.80;;;7.00;99.90;;;;;;4902950;29;20105;-95
2020/12/12 16:42:55;;;;;;;9.55;2.03;;;7.00;99.90;;;;;;4906784;29;20025;-96
2020/12/12 16:45:25;;;;;;;5.03;2.00;;;7.00;99.90;;;;;;4903643;29;20013;-95
2020/12/12 16:47:52;;;;;;;3.70;1.33;;;7.00;99.90;;;;;;4922482;29;20039;-96
2020/12/12 16:50:18;;;;;;;13.85;2.08;;;6.90;99.90;;;;;;4921148;29;20047;-95
2020/12/12 16:52:50;;;;;;;7.10;1.95;;;7.00;99.90;;;;;;4925461;29;20036;-95
2020/12/12 16:55:18;;;;;;;10.85;2.80;;;6.90;99.90;;;;;;4905119;29;20044;-96
2020/12/12 16:57:49;;;;;;;10.05;1.67;;;6.90;99.90;;;;;;4906759;29;20036;-95
2020/12/12 17:00:22;;;;;;;5.47;1.60;;;6.90;99.90;;;;;;4917059;29;20029;-95
2020/12/12 17:02:48;;;;;;;5.70;1.60;;;6.80;99.90;;;;;;4900342;29;20044;-96
2020/12/12 17:05:17;;;;;;;10.80;2.10;;;6.80;99.90;;;;;;4884259;29;20103;-96
2020/12/12 17:07:47;;;;;;;16.20;2.20;;;6.80;99.90;;;;;;4914702;29;20037;-95
2020/12/12 17:10:14;;;;;;;6.57;2.00;;;6.80;99.90;;;;;;4910996;29;20032;-95
2020/12/12 17:12:47;;;;;;;8.35;2.40;;;6.80;99.90;;;;;;4915229;29;20047;-96
2020/12/12 17:15:13;;;;;;;10.90;2.35;;;6.70;99.90;;;;;;4908936;29;20118;-95
2020/12/12 17:17:49;;;;;;;7.35;1.70;;;6.70;99.90;;;;;;4895731;29;20017;-96
2020/12/12 17:20:19;;;;;;;8.30;2.38;;;6.70;99.90;;;;;;4911258;29;20040;-96
2020/12/12 17:22:47;;;;;;;9.63;1.98;;;6.70;99.90;;;;;;4903843;29;20013;-96
2020/12/12 17:25:14;;;;;;;5.82;1.95;;;6.70;99.90;;;;;;4902005;29;20036;-95
2020/12/12 17:27:45;;;;;;;7.00;2.78;;;6.60;99.90;;;;;;4902291;29;20041;-96
2020/12/12 17:30:18;;;;;;;10.45;2.85;;;6.60;99.90;;;;;;4899439;29;20056;-96
2020/12/12 17:32:49;;;;;;;20.10;9.27;;;6.60;99.90;;;;;;4912853;29;20033;-95
2020/12/12 17:35:16;;;;;;;22.90;10.43;;;6.60;99.90;;;;;;4900701;29;20048;-95
2020/12/12 17:37:42;;;;;;;18.60;8.73;;;6.60;99.90;;;;;;4878386;29;20101;-95
2020/12/12 17:40:11;;;;;;;8.95;2.92;;;6.60;99.90;;;;;;4892433;29;20076;-96
2020/12/12 17:42:38;;;;;;;11.23;2.22;;;6.60;99.90;;;;;;4906214;29;20092;-95
2020/12/12 17:45:10;;;;;;;7.53;2.70;;;6.60;99.90;;;;;;4880178;29;20036;-96
2020/12/12 17:47:43;;;;;;;18.08;6.07;;;6.60;99.90;;;;;;4894472;29;20036;-95
2020/12/12 17:50:11;;;;;;;15.43;4.13;;;6.50;99.90;;;;;;4895358;29;20028;-95
2020/12/12 17:55:42;;;;;;;;;;;;;;;;;;;;;
2020/12/12 17:58:10;;;;;;;11.52;2.78;;;6.50;99.90;;;;;;4927296;29;20103;-96
2020/12/12 18:00:36;;;;;;;15.30;4.38;;;6.50;99.90;;;;;;4878450;29;20530;-95
2020/12/12 18:08:46;;;;;;;9.27;2.17;;;6.40;99.90;;;;;;939128;23;20332;-95
2020/12/12 18:11:11;;;;;;;15.25;4.50;;;6.40;99.90;;;;;;4855985;29;20057;-96
2020/12/12 18:13:40;;;;;;;10.07;2.20;;;6.40;99.90;;;;;;4864230;29;20025;-95
2020/12/12 18:16:08;;;;;;;7.60;2.90;;;6.40;99.90;;;;;;4864476;29;20010;-96
2020/12/12 18:18:34;;;;;;;11.80;3.75;;;6.40;99.90;;;;;;4867888;29;20042;-95
2020/12/12 18:21:03;;;;;;;9.13;2.20;;;6.40;99.90;;;;;;4867685;29;20036;-96
2020/12/12 18:23:40;;;;;;;12.57;3.10;;;6.30;99.90;;;;;;4879745;29;20041;-96
2020/12/12 18:26:06;;;;;;;13.20;2.55;;;6.30;99.90;;;;;;4863461;29;20018;-95
2020/12/12 18:28:32;;;;;;;11.07;2.67;;;6.30;99.90;;;;;;4846713;29;20465;-95
2020/12/12 18:30:57;;;;;;;15.00;3.10;;;6.30;99.90;;;;;;4875817;29;20038;-95
2020/12/12 18:33:23;;;;;;;16.48;3.58;;;6.30;99.90;;;;;;4876349;29;20037;-94
2020/12/12 18:35:49;;;;;;;12.18;2.80;;;6.30;99.90;;;;;;4874217;29;20030;-94
2020/12/12 18:38:15;;;;;;;8.38;1.90;;;6.30;99.90;;;;;;4865579;29;20030;-95
2020/12/12 18:40:42;;;;;;;5.35;1.40;;;6.30;99.90;;;;;;4846657;29;20778;-95
2020/12/12 18:43:15;;;;;;;13.55;3.60;;;6.30;99.90;;;;;;4861581;29;20041;-94
2020/12/12 18:45:44;;;;;;;11.45;2.10;;;6.20;99.90;;;;;;4879821;29;20030;-95
2020/12/12 18:48:12;;;;;;;16.48;3.38;;;6.20;99.90;;;;;;4877128;29;20042;-94
2020/12/12 18:50:41;;;;;;;12.00;2.92;;;6.20;99.90;;;;;;4847380;29;20030;-94
2020/12/12 18:53:07;;;;;;;11.52;2.30;;;6.20;99.90;;;;;;4862504;29;20030;-94
2020/12/12 18:55:33;;;;;;;9.55;2.50;;;6.20;99.90;;;;;;4862715;29;20094;-94
2020/12/12 18:58:00;;;;;;;7.55;1.60;;;6.20;99.90;;;;;;4862553;29;20033;-95
2020/12/12 19:00:27;;;;;;;5.80;1.83;;;6.20;99.90;;;;;;4852657;29;20030;-95
2020/12/12 19:02:53;;;;;;;15.63;3.72;;;6.20;99.90;;;;;;4875120;29;20037;-96
2020/12/12 19:05:20;;;;;;;10.75;2.45;;;6.20;99.90;;;;;;4872772;29;20096;-95
2020/12/12 19:07:49;;;;;;;10.85;1.92;;;6.20;99.90;;;;;;4871278;29;20045;-95
2020/12/12 19:10:15;;;;;;;12.55;2.30;;;6.20;99.90;;;;;;4854520;29;20037;-96
2020/12/12 19:12:47;;;;;;;13.85;2.33;;;6.20;99.90;;;;;;4857895;29;20090;-96
2020/12/12 19:15:15;;;;;;;11.60;3.10;;;6.20;99.90;;;;;;4856923;29;20041;-96
2020/12/12 19:17:41;;;;;;;11.23;2.90;;;6.20;99.90;;;;;;4860836;29;20463;-96
2020/12/12 19:20:19;;;;;;;7.20;2.08;;;6.20;99.90;;;;;;4858019;29;20042;-96
2020/12/12 19:22:44;;;;;;;9.98;2.13;;;6.10;99.90;;;;;;4859237;29;20064;-95
2020/12/12 19:25:11;;;;;;;12.70;2.80;;;6.20;99.90;;;;;;4855973;29;20038;-95
2020/12/12 19:27:38;;;;;;;8.77;2.10;;;6.20;99.90;;;;;;4871627;29;20042;-95
2020/12/12 19:30:07;;;;;;;9.13;2.35;;;6.20;99.90;;;;;;4873785;29;20049;-95
2020/12/12 19:32:33;;;;;;;10.32;2.55;;;6.20;99.90;;;;;;4871845;29;20496;-92
2020/12/12 19:34:59;;;;;;;11.40;2.90;;;6.20;99.90;;;;;;4860914;29;20084;-94
2020/12/12 19:37:25;;;;;;;7.90;3.42;;;6.20;99.90;;;;;;4854755;29;20057;-94
2020/12/12 19:39:50;;;;;;;14.32;5.05;;;6.20;99.90;;;;;;4859133;29;20034;-95
2020/12/12 19:42:17;;;;;;;11.60;3.50;;;6.20;99.90;;;;;;4859010;29;20493;-94
2020/12/12 19:44:44;;;;;;;7.45;2.15;;;6.20;99.90;;;;;;4845516;29;20033;-96
2020/12/12 19:47:10;;;;;;;12.75;2.90;;;6.20;99.90;;;;;;4860619;29;20065;-94
2020/12/12 19:49:36;;;;;;;7.63;2.33;;;6.20;99.90;;;;;;4845090;29;20065;-96
2020/12/12 19:52:05;;;;;;;13.68;2.90;;;6.20;99.90;;;;;;4865082;29;20547;-94
2020/12/12 19:54:33;;;;;;;13.52;3.10;;;6.20;99.90;;;;;;4863162;29;20026;-96
2020/12/12 19:57:02;;;;;;;9.02;3.22;;;6.20;99.90;;;;;;4860743;29;20026;-95
2020/12/12 19:59:28;;;;;;;5.93;2.50;;;6.20;99.90;;;;;;4874487;29;20401;-95
2020/12/12 20:01:56;;;;;;;14.88;3.00;;;6.20;99.90;;;;;;4875636;29;20042;-95
2020/12/12 20:04:25;;;;;;;13.35;3.30;;;6.20;99.90;;;;;;4872595;29;20725;-95
